Time;durP1;ratioP1;P1;durP2;ratioP2;P2;SDS_P1;SDS_P2;PMS_P1;PMS_P2;Temp;Humidity;BMP_temperature;BMP_pressure;BME280_temperature;BME280_humidity;BME280_pressure;Samples;Min_cycle;Max_cycle;Signal;HPM_P1;HPM_P2
2022/03/25 00:00:21;;;;;;;;;;;;;;;21.60;33.94;95468.91;2048227;29;1715;-70
2022/03/25 00:01:22;;;;;;;;;;;;;;;21.60;34.07;95463.56;2046972;29;1761;-69
2022/03/25 00:02:24;;;;;;;;;;;;;;;21.61;34.12;95465.22;2041335;29;1906;-70
2022/03/25 00:03:26;;;;;;;;;;;;;;;21.63;33.98;95457.00;2045060;29;1552;-70
2022/03/25 00:04:28;;;;;;;;;;;;;;;21.64;33.95;95462.13;2045675;28;1634;-70
2022/03/25 00:05:30;;;;;;;;;;;;;;;21.65;34.04;95462.94;2042166;29;1721;-70
2022/03/25 00:06:32;;;;;;;;;;;;;;;21.66;33.97;95462.75;2039797;29;1541;-70
2022/03/25 00:07:34;;;;;;;;;;;;;;;21.67;34.11;95461.69;2048761;29;1496;-70
2022/03/25 00:08:36;;;;;;;;;;;;;;;21.66;33.89;95462.75;2041665;29;1015;-70
2022/03/25 00:09:38;;;;;;;;;;;;;;;21.66;33.75;95460.06;2042054;29;1125;-71
2022/03/25 00:10:39;;;;;;;;;;;;;;;21.66;33.69;95462.75;2042043;29;1004;-70
2022/03/25 00:11:41;;;;;;;;;;;;;;;21.66;34.18;95465.41;2041383;28;1396;-70
2022/03/25 00:12:43;;;;;;;;;;;;;;;21.67;33.69;95459.03;2049255;29;1155;-70
2022/03/25 00:13:44;;;;;;;;;;;;;;;21.67;33.86;95464.38;2047928;29;1672;-70
2022/03/25 00:14:46;;;;;;;;;;;;;;;21.67;33.89;95461.69;2041391;29;1651;-70
2022/03/25 00:15:48;;;;;;;;;;;;;;;21.67;34.00;95460.88;2041325;29;1565;-71
2022/03/25 00:16:49;;;;;;;;;;;;;;;21.68;33.84;95460.69;2040919;29;1054;-70
2022/03/25 00:17:51;;;;;;;;;;;;;;;21.69;34.03;95456.16;2037211;29;1297;-70
2022/03/25 00:18:54;;;;;;;;;;;;;;;21.66;33.75;95452.03;2043714;29;1563;-69
2022/03/25 00:19:56;;;;;;;;;;;;;;;21.68;34.00;95460.69;2049994;28;1119;-70
2022/03/25 00:20:57;;;;;;;;;;;;;;;21.67;33.76;95459.03;2048476;28;1635;-69
2022/03/25 00:21:59;;;;;;;;;;;;;;;21.68;33.80;95457.16;2050015;28;1983;-69
2022/03/25 00:23:01;;;;;;;;;;;;;;;21.68;33.81;95450.00;2048349;29;1528;-69
2022/03/25 00:24:04;;;;;;;;;;;;;;;21.68;33.93;95449.13;2048858;29;1096;-69
2022/03/25 00:25:06;;;;;;;;;;;;;;;21.67;33.75;95451.00;2049825;28;1100;-69
2022/03/25 00:26:08;;;;;;;;;;;;;;;21.67;34.06;95452.84;2050036;28;1087;-69
2022/03/25 00:27:09;;;;;;;;;;;;;;;21.67;33.71;95451.00;2048220;29;1529;-69
2022/03/25 00:28:11;;;;;;;;;;;;;;;21.68;33.93;95451.81;2044883;28;1253;-69
2022/03/25 00:29:13;;;;;;;;;;;;;;;21.67;34.04;95447.50;2047669;28;1659;-71
2022/03/25 00:30:15;;;;;;;;;;;;;;;21.67;33.96;95450.19;2049605;29;1131;-70
2022/03/25 00:31:17;;;;;;;;;;;;;;;21.66;34.13;95443.19;2047216;29;1510;-71
2022/03/25 00:32:20;;;;;;;;;;;;;;;21.67;34.24;95442.16;2049140;29;1017;-71
2022/03/25 00:33:21;;;;;;;;;;;;;;;21.67;34.36;95442.16;2048383;29;1526;-71
2022/03/25 00:34:23;;;;;;;;;;;;;;;21.68;34.20;95441.97;2049063;29;1084;-70
2022/03/25 00:35:25;;;;;;;;;;;;;;;21.67;34.23;95437.63;2049556;28;1012;-70
2022/03/25 00:36:27;;;;;;;;;;;;;;;21.67;34.26;95437.63;2049774;28;1194;-71
2022/03/25 00:37:28;;;;;;;;;;;;;;;21.67;34.42;95437.63;2049823;28;1123;-71
2022/03/25 00:38:30;;;;;;;;;;;;;;;21.68;34.29;95444.66;2046400;29;1570;-71
2022/03/25 00:39:32;;;;;;;;;;;;;;;21.70;34.45;95432.91;2036793;29;1097;-71
2022/03/25 00:40:33;;;;;;;;;;;;;;;21.70;34.41;95440.94;2048619;29;1577;-71
2022/03/25 00:41:36;;;;;;;;;;;;;;;21.73;34.87;95441.31;2049203;29;1079;-69
2022/03/25 00:42:38;;;;;;;;;;;;;;;21.72;34.30;95436.19;2047918;29;1989;-69
2022/03/25 00:43:43;;;;;;;;;;;;;;;21.70;34.98;95430.22;2049173;28;1718;-71
2022/03/25 00:44:45;;;;;;;;;;;;;;;21.68;35.05;95433.94;2049574;28;1683;-71
2022/03/25 00:45:48;;;;;;;;;;;;;;;21.66;35.33;95425.31;2048852;28;1710;-70
2022/03/25 00:46:49;;;;;;;;;;;;;;;21.65;35.15;95429.00;2047291;28;1485;-70
2022/03/25 00:47:51;;;;;;;;;;;;;;;21.65;35.36;95431.69;2044807;28;1491;-70
2022/03/25 00:48:52;;;;;;;;;;;;;;;21.64;35.48;95438.03;2040981;29;1194;-70
2022/03/25 00:49:54;;;;;;;;;;;;;;;21.64;35.45;95435.38;2044973;29;1662;-71
2022/03/25 00:50:56;;;;;;;;;;;;;;;21.63;35.43;95433.75;2044930;29;1103;-71
2022/03/25 00:51:58;;;;;;;;;;;;;;;21.64;35.33;95442.56;2049087;29;1066;-70
2022/03/25 00:53:00;;;;;;;;;;;;;;;21.62;35.34;95429.41;2047724;29;1452;-70
2022/03/25 00:54:03;;;;;;;;;;;;;;;21.62;35.60;95429.41;2048402;29;1654;-70
2022/03/25 00:55:05;;;;;;;;;;;;;;;21.62;35.53;95423.22;2048803;28;1502;-70
2022/03/25 00:56:07;;;;;;;;;;;;;;;21.61;35.57;95422.41;2048867;29;1176;-71
2022/03/25 00:57:10;;;;;;;;;;;;;;;21.61;35.49;95421.59;2048795;29;1060;-70
2022/03/25 00:58:14;;;;;;;;;;;;;;;21.62;35.46;95429.41;2049143;29;865;-70
2022/03/25 00:59:16;;;;;;;;;;;;;;;21.63;35.72;95430.25;2048907;29;1100;-70
2022/03/25 01:00:18;;;;;;;;;;;;;;;21.61;35.47;95425.09;2049180;29;968;-70
2022/03/25 01:01:19;;;;;;;;;;;;;;;21.60;35.43;95415.44;2043546;29;1576;-70
2022/03/25 01:02:21;;;;;;;;;;;;;;;21.60;35.48;95420.78;2049179;29;1907;-70
2022/03/25 01:03:23;;;;;;;;;;;;;;;21.62;35.32;95420.56;2049761;28;1032;-70
2022/03/25 01:04:25;;;;;;;;;;;;;;;21.61;35.49;95430.44;2048661;28;1691;-70
2022/03/25 01:05:27;;;;;;;;;;;;;;;21.60;35.42;95422.66;2045504;28;1672;-70
2022/03/25 01:06:29;;;;;;;;;;;;;;;21.60;35.31;95430.66;2045179;28;1691;-70
2022/03/25 01:07:31;;;;;;;;;;;;;;;21.61;35.17;95427.75;2044605;29;1737;-70
2022/03/25 01:08:32;;;;;;;;;;;;;;;21.61;35.35;95426.94;2048481;29;1108;-70
2022/03/25 01:09:34;;;;;;;;;;;;;;;21.61;35.32;95425.09;2046292;29;1711;-70
2022/03/25 01:10:36;;;;;;;;;;;;;;;21.60;35.36;95419.97;2041413;29;1152;-70
2022/03/25 01:11:39;;;;;;;;;;;;;;;21.60;35.34;95426.13;2041845;29;1047;-71
2022/03/25 01:12:41;;;;;;;;;;;;;;;21.60;35.38;95417.28;2036726;29;1207;-71
2022/03/25 01:13:42;;;;;;;;;;;;;;;21.59;35.39;95419.13;2041677;29;959;-70
2022/03/25 01:14:44;;;;;;;;;;;;;;;21.59;35.31;95415.63;2040560;29;1026;-71
2022/03/25 01:15:48;;;;;;;;;;;;;;;21.59;35.62;95419.13;2040404;29;1029;-70
2022/03/25 01:16:50;;;;;;;;;;;;;;;21.58;35.54;95422.84;2040861;29;1121;-70
2022/03/25 01:17:52;;;;;;;;;;;;;;;21.59;35.64;95420.97;2042404;29;1772;-70
2022/03/25 01:18:53;;;;;;;;;;;;;;;21.60;35.69;95411.94;2044721;29;1587;-71
2022/03/25 01:19:55;;;;;;;;;;;;;;;21.59;35.30;95419.13;2048683;29;1473;-71
2022/03/25 01:20:57;;;;;;;;;;;;;;;21.59;35.50;95416.44;2048600;29;1179;-71
2022/03/25 01:21:59;;;;;;;;;;;;;;;21.58;35.37;95404.13;2049143;29;1015;-71
2022/03/25 01:23:00;;;;;;;;;;;;;;;21.58;35.71;95412.13;2047283;29;1914;-70
2022/03/25 01:24:02;;;;;;;;;;;;;;;21.59;35.55;95408.44;2045082;28;1449;-71
2022/03/25 01:25:04;;;;;;;;;;;;;;;21.58;35.68;95414.81;2048794;29;1035;-71
2022/03/25 01:26:06;;;;;;;;;;;;;;;21.58;35.63;95405.97;2048006;29;1509;-71
2022/03/25 01:27:07;;;;;;;;;;;;;;;21.59;35.56;95413.78;2048911;29;1086;-71
2022/03/25 01:28:09;;;;;;;;;;;;;;;21.58;35.33;95403.31;2049222;29;960;-71
2022/03/25 01:29:12;;;;;;;;;;;;;;;21.59;35.32;95403.06;2047396;29;1504;-71
2022/03/25 01:30:14;;;;;;;;;;;;;;;21.59;35.43;95408.44;2048888;28;1504;-71
2022/03/25 01:31:15;;;;;;;;;;;;;;;21.59;35.53;95408.44;2048626;29;1406;-71
2022/03/25 01:32:17;;;;;;;;;;;;;;;21.60;35.67;95410.09;2038699;29;1421;-71
2022/03/25 01:33:19;;;;;;;;;;;;;;;21.60;35.56;95409.28;2044411;29;1678;-71
2022/03/25 01:34:21;;;;;;;;;;;;;;;21.59;35.48;95402.25;2036627;29;1221;-71
2022/03/25 01:35:24;;;;;;;;;;;;;;;21.60;35.46;95414.63;2041138;29;1510;-70
2022/03/25 01:36:26;;;;;;;;;;;;;;;21.60;35.52;95407.41;2041493;29;1175;-72
2022/03/25 01:37:29;;;;;;;;;;;;;;;21.59;35.59;95411.09;2043802;29;1425;-71
2022/03/25 01:38:32;;;;;;;;;;;;;;;21.60;35.45;95412.75;2048684;28;1539;-71
2022/03/25 01:39:34;;;;;;;;;;;;;;;21.59;35.53;95419.13;2049287;28;1178;-71
2022/03/25 01:40:37;;;;;;;;;;;;;;;21.59;35.62;95413.78;2048457;29;1109;-72
2022/03/25 01:41:38;;;;;;;;;;;;;;;21.60;35.83;95410.09;2048874;29;1116;-70
2022/03/25 01:42:41;;;;;;;;;;;;;;;21.60;35.75;95410.09;2047101;29;1931;-71
2022/03/25 01:44:01;;;;;;;;;;;;;;;21.61;35.50;95414.41;2041826;29;1682;-70
2022/03/25 01:45:04;;;;;;;;;;;;;;;21.60;35.89;95415.44;2045055;29;1678;-70
2022/03/25 01:46:05;;;;;;;;;;;;;;;21.62;35.83;95412.53;2046772;28;1318;-71
2022/03/25 01:47:08;;;;;;;;;;;;;;;21.61;35.57;95413.56;2046730;29;1515;-71
2022/03/25 01:48:14;;;;;;;;;;;;;;;21.61;35.59;95424.28;2048627;28;1551;-70
2022/03/25 01:49:16;;;;;;;;;;;;;;;21.62;36.17;95416.03;2046294;29;1732;-69
2022/03/25 01:50:20;;;;;;;;;;;;;;;21.64;35.69;95422.00;2041699;29;1609;-70
2022/03/25 01:51:22;;;;;;;;;;;;;;;21.63;35.80;95425.72;2047479;29;1478;-70
2022/03/25 01:52:24;;;;;;;;;;;;;;;21.59;36.12;95418.31;2049015;28;999;-70
2022/03/25 01:53:26;;;;;;;;;;;;;;;21.63;35.91;95425.72;2048574;29;1113;-70
2022/03/25 01:54:28;;;;;;;;;;;;;;;21.62;35.90;95418.69;2048475;29;1028;-70
2022/03/25 01:55:37;;;;;;;;;;;;;;;21.62;35.89;95424.06;2047418;28;1414;-70
2022/03/25 01:56:38;;;;;;;;;;;;;;;21.63;35.83;95425.72;2043955;29;1228;-71
2022/03/25 01:57:40;;;;;;;;;;;;;;;21.63;35.77;95423.03;2047034;29;1548;-71
2022/03/25 01:58:42;;;;;;;;;;;;;;;21.64;35.91;95418.50;2048492;29;924;-72
2022/03/25 01:59:44;;;;;;;;;;;;;;;21.63;36.05;95420.38;2048193;29;1497;-72
2022/03/25 02:00:46;;;;;;;;;;;;;;;21.63;36.27;95420.38;2045428;29;1561;-73
2022/03/25 02:01:48;;;;;;;;;;;;;;;21.64;36.20;95421.19;2049097;28;1294;-72
2022/03/25 02:02:50;;;;;;;;;;;;;;;21.63;36.12;95419.56;2049122;28;1883;-72
2022/03/25 02:03:52;;;;;;;;;;;;;;;21.64;35.92;95416.66;2047076;28;1692;-72
2022/03/25 02:04:54;;;;;;;;;;;;;;;21.63;36.01;95415.03;2040462;29;1258;-72
2022/03/25 02:05:56;;;;;;;;;;;;;;;21.64;35.95;95421.19;2041295;29;1094;-73
2022/03/25 02:06:57;;;;;;;;;;;;;;;21.64;36.22;95422.00;2040562;29;1717;-73
2022/03/25 02:07:59;;;;;;;;;;;;;;;21.67;36.06;95423.44;2035692;29;1163;-73
2022/03/25 02:09:01;;;;;;;;;;;;;;;21.66;36.07;95413.78;2041190;29;991;-72
2022/03/25 02:10:04;;;;;;;;;;;;;;;21.65;35.99;95420.16;2040982;29;1116;-72
2022/03/25 02:11:08;;;;;;;;;;;;;;;21.64;36.10;95422.00;2040974;29;1170;-72
2022/03/25 02:12:12;;;;;;;;;;;;;;;21.64;36.20;95421.19;2041182;29;1082;-72
2022/03/25 02:13:13;;;;;;;;;;;;;;;21.64;36.29;95424.69;2047777;29;1384;-72
2022/03/25 02:14:16;;;;;;;;;;;;;;;21.64;36.28;95415.84;2045273;29;1654;-72
2022/03/25 02:15:18;;;;;;;;;;;;;;;21.63;36.33;95417.69;2047505;29;1570;-72
2022/03/25 02:16:19;;;;;;;;;;;;;;;21.65;36.16;95428.16;2047462;29;1462;-73
2022/03/25 02:17:21;;;;;;;;;;;;;;;21.65;36.08;95417.47;2048841;28;1166;-71
2022/03/25 02:18:24;;;;;;;;;;;;;;;21.66;36.29;95424.47;2042818;28;1584;-72
2022/03/25 02:19:26;;;;;;;;;;;;;;;21.64;36.30;95422.00;2048319;28;1635;-72
2022/03/25 02:20:27;;;;;;;;;;;;;;;21.65;36.13;95418.31;2046458;29;1534;-73
2022/03/25 02:21:30;;;;;;;;;;;;;;;21.65;36.50;95417.47;2034278;29;1730;-72
2022/03/25 02:22:32;;;;;;;;;;;;;;;21.65;36.22;95423.66;2039752;29;1116;-72
2022/03/25 02:23:34;;;;;;;;;;;;;;;21.65;36.45;95422.81;2040764;29;1903;-72
2022/03/25 02:24:35;;;;;;;;;;;;;;;21.64;36.25;95419.31;2047061;29;1823;-72
2022/03/25 02:25:38;;;;;;;;;;;;;;;21.64;36.35;95413.97;2048147;29;1656;-72
2022/03/25 02:26:39;;;;;;;;;;;;;;;21.66;36.13;95416.47;2048856;28;1059;-73
2022/03/25 02:27:42;;;;;;;;;;;;;;;21.65;36.36;95407.63;2048171;28;1398;-73
2022/03/25 02:28:43;;;;;;;;;;;;;;;21.66;36.24;95417.28;2046841;28;1663;-72
2022/03/25 02:29:45;;;;;;;;;;;;;;;21.65;36.50;95407.63;2043756;28;1130;-72
2022/03/25 02:30:47;;;;;;;;;;;;;;;21.66;36.25;95413.78;2048754;28;1117;-72
2022/03/25 02:31:48;;;;;;;;;;;;;;;21.64;36.38;95411.31;2048871;28;1187;-72
2022/03/25 02:32:50;;;;;;;;;;;;;;;21.65;36.39;95412.13;2048121;29;1104;-73
2022/03/25 02:33:53;;;;;;;;;;;;;;;21.66;36.26;95413.78;2048097;29;1643;-72
2022/03/25 02:34:54;;;;;;;;;;;;;;;21.66;36.26;95403.91;2046426;28;1423;-69
2022/03/25 02:35:56;;;;;;;;;;;;;;;21.67;36.27;95412.75;2040940;29;1553;-70
2022/03/25 02:36:58;;;;;;;;;;;;;;;21.67;36.46;95410.06;2047451;29;1143;-70
2022/03/25 02:37:59;;;;;;;;;;;;;;;21.66;36.47;95417.28;2048362;29;1016;-70
2022/03/25 02:39:02;;;;;;;;;;;;;;;21.65;36.23;95410.28;2048657;29;1104;-71
2022/03/25 02:40:07;;;;;;;;;;;;;;;21.66;36.65;95409.25;2047775;29;1039;-71
2022/03/25 02:41:08;;;;;;;;;;;;;;;21.69;36.35;95416.03;2045564;28;1159;-70
2022/03/25 02:42:10;;;;;;;;;;;;;;;21.71;36.36;95413.13;2048722;28;1132;-70
2022/03/25 02:43:12;;;;;;;;;;;;;;;21.72;36.27;95412.13;2044514;28;1907;-71
2022/03/25 02:44:14;;;;;;;;;;;;;;;21.72;35.99;95418.28;2047732;28;1499;-71
2022/03/25 02:45:20;;;;;;;;;;;;;;;21.72;35.83;95417.47;2041312;29;1698;-70
2022/03/25 02:46:22;;;;;;;;;;;;;;;21.68;36.25;95412.53;2047308;29;1612;-70
2022/03/25 02:47:24;;;;;;;;;;;;;;;21.69;36.10;95416.03;2047117;28;1437;-70
2022/03/25 02:48:25;;;;;;;;;;;;;;;21.67;36.13;95418.91;2046330;29;1748;-70
2022/03/25 02:49:27;;;;;;;;;;;;;;;21.68;36.11;95417.91;2047038;29;1650;-70
2022/03/25 02:50:29;;;;;;;;;;;;;;;21.67;36.27;95413.56;2048208;29;1718;-70
2022/03/25 02:51:31;;;;;;;;;;;;;;;21.67;36.27;95420.75;2041664;28;1397;-70
2022/03/25 02:52:32;;;;;;;;;;;;;;;21.70;36.11;95411.50;2046319;29;1644;-70
2022/03/25 02:53:34;;;;;;;;;;;;;;;21.72;35.90;95417.47;2043067;28;1700;-70
2022/03/25 02:54:35;;;;;;;;;;;;;;;21.73;36.01;95414.56;2044012;29;1304;-71
2022/03/25 02:55:37;;;;;;;;;;;;;;;21.75;35.79;95417.06;2048559;28;1104;-71
2022/03/25 02:56:39;;;;;;;;;;;;;;;21.76;36.10;95418.69;2048717;28;1019;-71
2022/03/25 02:57:40;;;;;;;;;;;;;;;21.76;35.86;95424.03;2048654;28;1096;-71
2022/03/25 02:58:42;;;;;;;;;;;;;;;21.78;35.78;95416.63;2048221;29;1043;-69
2022/03/25 02:59:43;;;;;;;;;;;;;;;21.78;36.14;95427.34;2040064;29;1019;-69
2022/03/25 03:00:45;;;;;;;;;;;;;;;21.78;35.96;95416.63;2046390;29;1724;-69
2022/03/25 03:01:47;;;;;;;;;;;;;;;21.78;35.84;95424.66;2043129;29;1838;-69
2022/03/25 03:02:49;;;;;;;;;;;;;;;21.78;36.12;95417.44;2043830;29;1089;-69
2022/03/25 03:03:50;;;;;;;;;;;;;;;21.79;36.19;95427.09;2048673;29;1985;-69
2022/03/25 03:04:52;;;;;;;;;;;;;;;21.79;36.16;95418.28;2048611;28;1116;-71
2022/03/25 03:05:53;;;;;;;;;;;;;;;21.79;36.08;95428.97;2047235;29;1513;-70
2022/03/25 03:06:55;;;;;;;;;;;;;;;21.78;36.16;95425.47;2048505;28;1242;-70
2022/03/25 03:07:57;;;;;;;;;;;;;;;21.78;36.29;95427.34;2048821;29;1088;-70
2022/03/25 03:08:59;;;;;;;;;;;;;;;21.80;36.21;95430.63;2047872;29;1108;-70
2022/03/25 03:10:00;;;;;;;;;;;;;;;21.80;36.13;95433.31;2047355;29;2021;-71
2022/03/25 03:11:02;;;;;;;;;;;;;;;21.80;36.07;95431.44;2048010;29;1622;-71
2022/03/25 03:12:04;;;;;;;;;;;;;;;21.80;36.04;95426.09;2048603;28;1108;-70
2022/03/25 03:13:06;;;;;;;;;;;;;;;21.81;35.98;95442.97;2047142;29;1701;-70
2022/03/25 03:14:08;;;;;;;;;;;;;;;21.81;36.43;95440.28;2038251;29;1614;-70
2022/03/25 03:15:11;;;;;;;;;;;;;;;21.80;36.18;95438.66;2040030;29;1114;-69
2022/03/25 03:16:13;;;;;;;;;;;;;;;21.79;36.17;95437.00;2040406;29;1032;-69
2022/03/25 03:17:15;;;;;;;;;;;;;;;21.79;35.94;95437.81;2039957;29;1477;-69
2022/03/25 03:18:16;;;;;;;;;;;;;;;21.79;35.85;95440.47;2040248;29;1126;-69
2022/03/25 03:19:18;;;;;;;;;;;;;;;21.81;36.09;95440.28;2045914;29;1916;-69
2022/03/25 03:20:20;;;;;;;;;;;;;;;21.79;35.93;95432.47;2040272;29;1171;-69
2022/03/25 03:21:24;;;;;;;;;;;;;;;21.80;35.72;95435.97;2047566;29;1183;-68
2022/03/25 03:22:25;;;;;;;;;;;;;;;21.78;35.82;95441.53;2048548;28;1672;-69
2022/03/25 03:23:27;;;;;;;;;;;;;;;21.78;35.81;95440.72;2048338;28;1499;-69
2022/03/25 03:24:29;;;;;;;;;;;;;;;21.77;36.11;95441.72;2042808;28;1983;-69
2022/03/25 03:25:31;;;;;;;;;;;;;;;21.78;35.89;95444.19;2047087;29;1812;-69
2022/03/25 03:26:32;;;;;;;;;;;;;;;21.78;35.91;95438.84;2047788;28;1577;-69
2022/03/25 03:27:34;;;;;;;;;;;;;;;21.79;36.03;95437.00;2048575;29;1657;-69
2022/03/25 03:28:35;;;;;;;;;;;;;;;21.79;35.87;95450.38;2044351;28;1549;-69
2022/03/25 03:29:37;;;;;;;;;;;;;;;21.80;36.10;95446.69;2048406;29;1112;-70
2022/03/25 03:30:39;;;;;;;;;;;;;;;21.79;35.79;95448.50;2048122;28;1223;-69
2022/03/25 03:31:41;;;;;;;;;;;;;;;21.80;35.81;95444.00;2044403;29;1281;-69
2022/03/25 03:32:42;;;;;;;;;;;;;;;21.78;35.76;95449.56;2039686;29;1052;-72
2022/03/25 03:33:44;;;;;;;;;;;;;;;21.77;36.15;95447.06;2040039;29;1000;-71
2022/03/25 03:34:45;;;;;;;;;;;;;;;21.74;36.23;95437.63;2040748;29;1043;-71
2022/03/25 03:35:47;;;;;;;;;;;;;;;21.73;36.03;95443.19;2035821;29;1179;-70
2022/03/25 03:36:49;;;;;;;;;;;;;;;21.73;36.19;95443.19;2041944;29;1525;-71
2022/03/25 03:37:51;;;;;;;;;;;;;;;21.72;36.29;95445.03;2044214;29;1629;-71
2022/03/25 03:38:52;;;;;;;;;;;;;;;21.72;36.50;95433.53;2047334;28;1428;-71
2022/03/25 03:39:54;;;;;;;;;;;;;;;21.72;36.36;95439.69;2047617;29;1012;-71
2022/03/25 03:40:56;;;;;;;;;;;;;;;21.71;36.35;95439.88;2047977;29;1054;-71
2022/03/25 03:41:58;;;;;;;;;;;;;;;21.72;36.25;95446.91;2048589;28;814;-70
2022/03/25 03:43:00;;;;;;;;;;;;;;;21.72;36.22;95444.22;2042277;29;1429;-70
2022/03/25 03:44:01;;;;;;;;;;;;;;;21.70;36.35;95432.91;2039280;29;1984;-70
2022/03/25 03:45:04;;;;;;;;;;;;;;;21.67;36.57;95432.28;2045138;29;1188;-71
2022/03/25 03:46:06;;;;;;;;;;;;;;;21.72;36.36;95438.88;2042480;29;1484;-71
2022/03/25 03:47:08;;;;;;;;;;;;;;;21.72;36.52;95438.88;2039083;29;1335;-70
2022/03/25 03:48:11;;;;;;;;;;;;;;;21.71;36.66;95432.69;2043265;29;1311;-70
2022/03/25 03:49:12;;;;;;;;;;;;;;;21.73;36.44;95440.50;2040508;29;1526;-70
2022/03/25 03:50:15;;;;;;;;;;;;;;;21.72;36.61;95433.53;2044136;29;1461;-70
2022/03/25 03:51:17;;;;;;;;;;;;;;;21.71;36.71;95438.03;2046768;28;1652;-70
2022/03/25 03:52:19;;;;;;;;;;;;;;;21.71;36.69;95440.69;2048431;28;1163;-70
2022/03/25 03:53:21;;;;;;;;;;;;;;;21.71;36.48;95431.84;2047532;29;1511;-72
2022/03/25 03:54:22;;;;;;;;;;;;;;;21.71;36.38;95443.38;2041798;29;1622;-70
2022/03/25 03:55:24;;;;;;;;;;;;;;;21.75;36.69;95441.13;2040363;29;1004;-71
2022/03/25 03:56:25;;;;;;;;;;;;;;;21.75;36.23;95438.44;2039801;29;1650;-71
2022/03/25 03:57:27;;;;;;;;;;;;;;;21.73;36.44;95446.66;2035240;29;1179;-71
2022/03/25 03:58:28;;;;;;;;;;;;;;;21.72;36.38;95442.38;2039658;29;1562;-71
2022/03/25 03:59:30;;;;;;;;;;;;;;;21.70;36.15;95440.94;2042709;29;1748;-71
2022/03/25 04:00:32;;;;;;;;;;;;;;;21.71;36.17;95442.56;2048284;28;1170;-71
2022/03/25 04:01:34;;;;;;;;;;;;;;;21.70;36.23;95451.63;2047907;29;1036;-71
2022/03/25 04:02:36;;;;;;;;;;;;;;;21.67;36.23;95453.69;2047675;29;1043;-71
2022/03/25 04:03:37;;;;;;;;;;;;;;;21.66;36.09;95451.22;2048505;28;1105;-71
2022/03/25 04:04:39;;;;;;;;;;;;;;;21.65;35.99;95445.06;2044673;28;1979;-71
2022/03/25 04:05:42;;;;;;;;;;;;;;;21.64;36.24;95446.06;2043730;28;1605;-71
2022/03/25 04:06:44;;;;;;;;;;;;;;;21.65;36.20;95445.06;2044620;29;1627;-73
2022/03/25 04:07:48;;;;;;;;;;;;;;;20.83;23.42;95443.56;2043522;29;1511;-71
2022/03/25 04:08:49;;;;;;;;;;;;;;;18.72;21.67;95439.34;2035114;29;1124;-67
2022/03/25 04:09:51;;;;;;;;;;;;;;;17.57;20.56;95447.91;2045445;28;1681;-69
2022/03/25 04:10:53;;;;;;;;;;;;;;;17.16;21.11;95446.47;2047772;29;1649;-69
2022/03/25 04:11:54;;;;;;;;;;;;;;;16.58;20.40;95447.84;2048315;29;1546;-69
2022/03/25 04:12:56;;;;;;;;;;;;;;;16.27;20.82;95440.72;2048797;28;1486;-69
2022/03/25 04:13:57;;;;;;;;;;;;;;;16.25;21.01;95442.75;2049633;29;1108;-70
2022/03/25 04:14:59;;;;;;;;;;;;;;;16.09;20.72;95442.81;2049115;29;995;-68
2022/03/25 04:16:01;;;;;;;;;;;;;;;15.69;21.58;95436.66;2048185;29;1477;-68
2022/03/25 04:17:03;;;;;;;;;;;;;;;15.22;21.43;95445.34;2049024;29;1052;-69
2022/03/25 04:18:04;;;;;;;;;;;;;;;15.06;21.98;95442.75;2049776;28;1096;-69
2022/03/25 04:19:06;;;;;;;;;;;;;;;15.32;21.68;95440.72;2048909;28;1591;-69
2022/03/25 04:20:08;;;;;;;;;;;;;;;15.28;21.68;95441.22;2044988;28;964;-70
2022/03/25 04:21:10;;;;;;;;;;;;;;;15.15;21.52;95439.91;2048774;28;1501;-69
2022/03/25 04:22:11;;;;;;;;;;;;;;;14.90;21.44;95446.22;2046328;29;1575;-69
2022/03/25 04:23:13;;;;;;;;;;;;;;;14.65;22.36;95442.69;2042301;29;1598;-69
2022/03/25 04:24:14;;;;;;;;;;;;;;;14.68;22.07;95437.94;2045777;28;2009;-69
2022/03/25 04:25:16;;;;;;;;;;;;;;;14.57;22.31;95442.66;2047266;28;1616;-69
2022/03/25 04:26:18;;;;;;;;;;;;;;;14.58;22.29;95441.69;2049739;28;1331;-68
2022/03/25 04:27:19;;;;;;;;;;;;;;;14.63;22.31;95445.50;2049533;28;1063;-68
2022/03/25 04:28:21;;;;;;;;;;;;;;;14.65;21.81;95445.34;2049087;29;1620;-69
2022/03/25 04:29:23;;;;;;;;;;;;;;;14.50;21.73;95445.97;2047789;28;1733;-68
2022/03/25 04:30:28;;;;;;;;;;;;;;;14.50;22.95;95453.09;2046162;28;1108;-69
2022/03/25 04:31:30;;;;;;;;;;;;;;;14.28;22.57;95450.09;2042229;28;1440;-69
2022/03/25 04:32:32;;;;;;;;;;;;;;;13.74;23.01;95454.00;2043138;29;1786;-69
2022/03/25 04:33:34;;;;;;;;;;;;;;;13.54;23.45;95461.31;2041737;29;1239;-69
2022/03/25 04:34:35;;;;;;;;;;;;;;;13.73;23.25;95458.44;2045337;29;1769;-68
2022/03/25 04:35:37;;;;;;;;;;;;;;;13.95;23.16;95457.06;2043612;29;1539;-70
2022/03/25 04:36:39;;;;;;;;;;;;;;;14.09;22.88;95460.91;2044274;29;1396;-69
2022/03/25 04:37:41;;;;;;;;;;;;;;;13.94;22.68;95473.06;2049624;28;1128;-68
2022/03/25 04:38:43;;;;;;;;;;;;;;;13.24;23.42;95468.69;2048849;29;1097;-70
2022/03/25 04:39:45;;;;;;;;;;;;;;;13.15;24.10;95467.81;2048356;29;1515;-69
2022/03/25 04:40:46;;;;;;;;;;;;;;;13.23;24.18;95471.47;2049600;29;1040;-68
2022/03/25 04:41:48;;;;;;;;;;;;;;;13.54;23.57;95470.09;2044283;28;1511;-68
2022/03/25 04:42:51;;;;;;;;;;;;;;;13.61;23.79;95471.09;2045775;29;1499;-69
2022/03/25 04:43:52;;;;;;;;;;;;;;;13.53;23.56;95473.69;2047891;29;1581;-70
2022/03/25 04:44:54;;;;;;;;;;;;;;;13.29;23.68;95470.88;2046060;28;1908;-68
2022/03/25 04:45:55;;;;;;;;;;;;;;;13.54;24.76;95470.09;2048215;29;1581;-68
2022/03/25 04:46:57;;;;;;;;;;;;;;;14.49;24.62;95464.66;2049584;28;1004;-67
2022/03/25 04:47:59;;;;;;;;;;;;;;;14.41;23.28;95462.81;2049581;28;1059;-71
2022/03/25 04:49:01;;;;;;;;;;;;;;;14.13;24.72;95458.78;2047516;28;1447;-70
2022/03/25 04:50:02;;;;;;;;;;;;;;;14.79;25.15;95463.22;2049299;29;1017;-67
2022/03/25 04:51:04;;;;;;;;;;;;;;;15.48;24.60;95465.50;2049583;28;1001;-68
2022/03/25 04:52:06;;;;;;;;;;;;;;;16.07;24.35;95466.03;2048914;29;1051;-68
2022/03/25 04:53:08;;;;;;;;;;;;;;;16.71;24.75;95464.03;2044048;28;1485;-67
2022/03/25 04:54:10;;;;;;;;;;;;;;;17.10;24.57;95473.72;2045201;28;1582;-67
2022/03/25 04:55:11;;;;;;;;;;;;;;;17.41;24.20;95464.81;2049353;28;957;-67
2022/03/25 04:56:13;;;;;;;;;;;;;;;17.61;24.04;95471.28;2047945;28;1524;-69
2022/03/25 04:57:14;;;;;;;;;;;;;;;17.89;23.97;95462.69;2043005;28;1172;-68
2022/03/25 04:58:16;;;;;;;;;;;;;;;17.60;23.00;95469.59;2041132;29;1036;-68
2022/03/25 04:59:17;;;;;;;;;;;;;;;17.85;24.52;95461.41;2041272;29;1540;-66
2022/03/25 05:00:19;;;;;;;;;;;;;;;18.06;24.50;95469.47;2046791;29;1469;-68
2022/03/25 05:01:21;;;;;;;;;;;;;;;18.29;24.50;95463.19;2048199;28;1071;-67
2022/03/25 05:02:23;;;;;;;;;;;;;;;17.01;21.28;95464.16;2044028;28;1184;-67
2022/03/25 05:03:25;;;;;;;;;;;;;;;16.45;23.34;95468.84;2043547;29;1606;-71
2022/03/25 05:04:26;;;;;;;;;;;;;;;16.64;24.30;95468.38;2045159;28;1548;-68
2022/03/25 05:05:28;;;;;;;;;;;;;;;17.08;24.21;95464.28;2040365;29;2023;-67
2022/03/25 05:06:30;;;;;;;;;;;;;;;17.46;24.75;95464.28;2040805;29;1052;-71
2022/03/25 05:07:31;;;;;;;;;;;;;;;17.77;25.11;95464.97;2045164;29;1483;-67
2022/03/25 05:08:33;;;;;;;;;;;;;;;18.03;25.09;95463.69;2040866;29;1148;-67
2022/03/25 05:09:38;;;;;;;;;;;;;;;18.23;24.66;95466.59;2045571;29;1505;-67
2022/03/25 05:10:40;;;;;;;;;;;;;;;18.37;24.44;95464.94;2048177;28;1662;-67
2022/03/25 05:12:01;;;;;;;;;;;;;;;18.53;24.46;95467.38;2043267;29;1612;-67
2022/03/25 05:13:02;;;;;;;;;;;;;;;18.61;24.58;95467.28;2046849;29;1652;-67
2022/03/25 05:14:04;;;;;;;;;;;;;;;18.70;24.60;95466.16;2044588;29;1511;-67
2022/03/25 05:15:06;;;;;;;;;;;;;;;18.77;24.71;95461.72;2040481;29;1603;-67
2022/03/25 05:16:08;;;;;;;;;;;;;;;18.83;24.75;95465.47;2042765;29;1546;-68
2022/03/25 05:17:10;;;;;;;;;;;;;;;18.89;24.86;95469.22;2034940;29;1515;-67
2022/03/25 05:18:11;;;;;;;;;;;;;;;18.93;25.01;95467.84;2043197;29;1705;-67
2022/03/25 05:19:13;;;;;;;;;;;;;;;18.98;25.04;95470.75;2043646;28;1374;-68
2022/03/25 05:20:15;;;;;;;;;;;;;;;19.03;25.21;95464.84;2047102;29;1666;-67
2022/03/25 05:21:17;;;;;;;;;;;;;;;19.07;25.30;95466.13;2048131;28;1650;-67
2022/03/25 05:22:18;;;;;;;;;;;;;;;19.10;25.36;95471.88;2055676;28;1148;-67
2022/03/25 05:23:20;;;;;;;;;;;;;;;19.14;25.48;95474.97;2056198;28;1080;-69
2022/03/25 05:24:21;;;;;;;;;;;;;;;19.17;25.36;95475.41;2056222;28;1018;-68
2022/03/25 05:25:23;;;;;;;;;;;;;;;19.20;25.54;95466.22;2054805;28;1985;-69
2022/03/25 05:26:25;;;;;;;;;;;;;;;19.23;25.92;95473.81;2052862;28;1083;-67
2022/03/25 05:27:27;;;;;;;;;;;;;;;19.27;25.52;95471.63;2055411;28;1042;-68